createdAt,value
2022-10-23T00:01:32.069Z,98850.44
2022-10-23T00:04:35.047Z,98852.94
2022-10-23T00:07:40.148Z,98865.41
2022-10-23T00:10:46.395Z,98867.09
2022-10-23T00:13:49.635Z,98871.53
2022-10-23T00:16:52.627Z,98859.09
2022-10-23T00:19:55.234Z,98866.16
2022-10-23T00:22:58.142Z,98871.53
2022-10-23T00:26:03.426Z,98854.53
2022-10-23T00:29:06.844Z,98844.25
2022-10-23T00:32:09.415Z,98872.50
2022-10-23T00:35:12.245Z,98877.00
2022-10-23T00:38:14.755Z,98881.53
2022-10-23T00:41:24.798Z,98872.66
2022-10-23T00:44:30.551Z,98874.44
2022-10-23T00:47:33.369Z,98873.53
2022-10-23T00:50:36.071Z,98874.56
2022-10-23T00:53:39.413Z,98866.47
2022-10-23T00:56:44.321Z,98869.06
2022-10-23T00:59:47.162Z,98873.50
2022-10-23T01:02:49.964Z,98880.59
2022-10-23T01:06:13.720Z,98882.41
2022-10-23T01:09:22.522Z,98881.50
2022-10-23T01:12:35.563Z,98878.81
2022-10-23T01:15:47.024Z,98879.56
2022-10-23T01:19:03.999Z,98893.00
2022-10-23T01:22:12.427Z,98889.38
2022-10-23T01:25:32.164Z,98901.00
2022-10-23T01:28:42.244Z,98912.66
2022-10-23T01:31:56.652Z,98912.66
2022-10-23T01:35:28.104Z,98909.00
2022-10-23T01:38:38.174Z,98910.63
2022-10-23T01:41:50.471Z,98905.16
2022-10-23T01:45:12.386Z,98907.00
2022-10-23T01:48:18.845Z,98904.41
2022-10-23T01:51:24.541Z,98902.63
2022-10-23T01:54:30.514Z,98908.94
2022-10-23T01:57:34.081Z,98913.50
2022-10-23T02:00:39.288Z,98914.31
2022-10-23T02:03:44.239Z,98922.34
2022-10-23T02:06:46.771Z,98913.38
2022-10-23T02:09:49.886Z,98916.13
2022-10-23T02:13:04.734Z,98914.41
2022-10-23T02:16:24.477Z,98919.84
2022-10-23T02:19:35.800Z,98920.88
2022-10-23T02:22:43.241Z,98909.47
2022-10-23T02:25:53.305Z,98915.03
2022-10-23T02:29:08.807Z,98917.88
2022-10-23T02:32:12.439Z,98920.47
2022-10-23T02:35:18.002Z,98918.81
2022-10-23T02:38:33.828Z,98918.87
2022-10-23T02:42:06.509Z,98924.25
2022-10-23T02:45:15.757Z,98926.91
2022-10-23T02:48:27.227Z,98923.38
2022-10-23T02:51:58.946Z,98931.44
2022-10-23T02:55:19.542Z,98938.69
2022-10-23T02:58:46.877Z,98945.75
2022-10-23T03:01:57.725Z,98943.03
2022-10-23T03:05:00.901Z,98951.13
2022-10-23T03:08:05.741Z,98930.69
2022-10-23T03:11:08.382Z,98943.88
2022-10-23T03:14:12.723Z,98923.69
2022-10-23T03:17:15.239Z,98954.72
2022-10-23T03:20:21.904Z,98955.63
2022-10-23T03:23:24.566Z,98960.06
2022-10-23T03:26:27.397Z,98956.63
2022-10-23T03:29:30.072Z,98954.84
2022-10-23T03:32:33.090Z,98969.19
2022-10-23T03:35:35.895Z,98970.06
2022-10-23T03:38:38.807Z,98973.66
2022-10-23T03:41:41.546Z,98974.59
2022-10-23T03:44:44.594Z,98967.50
2022-10-23T03:47:47.116Z,98955.00
2022-10-23T03:50:50.059Z,98967.50
2022-10-23T03:53:52.731Z,98971.13
2022-10-23T03:56:57.515Z,98973.84
2022-10-23T04:00:01.301Z,98976.56
2022-10-23T04:03:05.332Z,98973.06
2022-10-23T04:06:12.640Z,98986.56
2022-10-23T04:09:15.281Z,98984.75
2022-10-23T04:12:18.470Z,98986.63
2022-10-23T04:15:21.106Z,98990.44
2022-10-23T04:18:26.065Z,99000.59
2022-10-23T04:21:28.601Z,99007.84
2022-10-23T04:24:31.371Z,99000.66
2022-10-23T04:27:34.501Z,98980.41
2022-10-23T04:30:37.539Z,98999.84
2022-10-23T04:33:40.577Z,98991.69
2022-10-23T04:36:43.514Z,98994.37
2022-10-23T04:39:46.125Z,98999.81
2022-10-23T04:42:48.947Z,98999.03
2022-10-23T04:45:51.709Z,98992.12
2022-10-23T04:48:55.523Z,98967.53
2022-10-23T04:51:58.341Z,98991.56
2022-10-23T04:55:05.061Z,98997.69
2022-10-23T04:58:07.730Z,98983.38
2022-10-23T05:01:10.968Z,98983.34
2022-10-23T05:04:14.072Z,98951.22
2022-10-23T05:07:17.809Z,98983.78
2022-10-23T05:10:21.149Z,98990.75
2022-10-23T05:13:23.999Z,98985.31
2022-10-23T05:16:46.935Z,98984.25
2022-10-23T05:19:57.576Z,98985.22
2022-10-23T05:23:00.806Z,98992.06
2022-10-23T05:26:04.896Z,99000.00
2022-10-23T05:29:07.669Z,98973.44
2022-10-23T05:32:13.868Z,98997.16
2022-10-23T05:35:19.892Z,99003.34
2022-10-23T05:38:30.026Z,98999.66
2022-10-23T05:41:32.597Z,98999.62
2022-10-23T05:44:35.562Z,98997.72
2022-10-23T05:47:38.592Z,99012.75
2022-10-23T05:50:41.848Z,99015.38
2022-10-23T05:53:50.063Z,98995.94
2022-10-23T05:56:55.645Z,99010.75
2022-10-23T05:59:58.428Z,99015.16
2022-10-23T06:03:14.413Z,99009.63
2022-10-23T06:06:17.807Z,99013.09
2022-10-23T06:09:21.085Z,98984.81
2022-10-23T06:12:24.785Z,99017.22
2022-10-23T06:15:28.502Z,99017.94
2022-10-23T06:18:32.675Z,99020.41
2022-10-23T06:21:39.913Z,99029.97
2022-10-23T06:24:44.130Z,99030.59
2022-10-23T06:27:46.871Z,99040.06
2022-10-23T06:30:49.877Z,99038.00
2022-10-23T06:33:53.927Z,99035.03
2022-10-23T06:36:56.967Z,99012.75
2022-10-23T06:40:00.088Z,99042.56
2022-10-23T06:43:04.888Z,99046.84
2022-10-23T06:46:08.671Z,99041.22
2022-10-23T06:49:18.974Z,99051.72
2022-10-23T06:52:45.259Z,99058.69
2022-10-23T06:55:44.552Z,99063.03
2022-10-23T06:58:47.053Z,99064.75
2022-10-23T07:01:50.299Z,99071.09
2022-10-23T07:04:53.084Z,99071.00
2022-10-23T07:07:56.848Z,99070.75
2022-10-23T07:11:06.671Z,99083.06
2022-10-23T07:14:09.953Z,99064.09
2022-10-23T07:17:12.687Z,99085.84
2022-10-23T07:20:15.670Z,99085.66
2022-10-23T07:23:18.223Z,99087.66
2022-10-23T07:26:21.195Z,99088.03
2022-10-23T07:29:24.046Z,99087.56
2022-10-23T07:32:28.633Z,99100.41
2022-10-23T07:35:38.421Z,99100.00
2022-10-23T07:38:42.404Z,99092.09
2022-10-23T07:41:45.215Z,99093.47
2022-10-23T07:44:48.039Z,99106.44
2022-10-23T07:47:51.940Z,99099.47
2022-10-23T07:51:00.874Z,99096.00
2022-10-23T07:54:03.619Z,99092.81
2022-10-23T07:57:07.522Z,99091.53
2022-10-23T08:00:11.486Z,99090.50
2022-10-23T08:03:15.954Z,99093.06
2022-10-23T08:06:19.154Z,99092.50
2022-10-23T08:09:22.244Z,99078.91
2022-10-23T08:12:25.667Z,99086.69
2022-10-23T08:15:29.758Z,99093.28
2022-10-23T08:18:33.426Z,99092.44
2022-10-23T08:21:36.706Z,99098.25
2022-10-23T08:24:40.167Z,99096.47
2022-10-23T08:27:43.325Z,99101.91
2022-10-23T08:30:46.345Z,99103.63
2022-10-23T08:36:57.100Z,99101.50
2022-10-23T08:39:59.690Z,99082.00
2022-10-23T08:43:13.594Z,99102.72
2022-10-23T08:46:18.302Z,99093.28
2022-10-23T08:49:54.691Z,99099.19
2022-10-23T08:53:15.548Z,99102.28
2022-10-23T08:56:35.127Z,99094.09
2022-10-23T08:59:42.783Z,99113.94
2022-10-23T09:02:48.947Z,99109.31
2022-10-23T09:06:08.858Z,99115.25
2022-10-23T09:09:27.239Z,99105.34
2022-10-23T09:12:31.484Z,99108.94
2022-10-23T09:15:42.886Z,99084.47
2022-10-23T09:18:47.450Z,99101.44
2022-10-23T09:21:50.477Z,99108.31
2022-10-23T09:24:54.015Z,99105.66
2022-10-23T09:28:01.592Z,99102.78
2022-10-23T09:31:12.034Z,99113.72
2022-10-23T09:34:23.451Z,99099.25
2022-10-23T09:37:31.998Z,99119.34
2022-10-23T09:40:43.211Z,99117.56
2022-10-23T09:43:45.850Z,99104.25
2022-10-23T09:47:11.364Z,99113.25
2022-10-23T09:50:20.408Z,99108.03
2022-10-23T09:53:29.078Z,99114.84
2022-10-23T09:56:34.177Z,99103.03
2022-10-23T09:59:37.239Z,99109.16
2022-10-23T10:02:41.983Z,99100.00
2022-10-23T10:05:56.617Z,99097.72
2022-10-23T10:09:05.903Z,99099.13
2022-10-23T10:12:24.712Z,99096.34
2022-10-23T10:15:48.008Z,99087.66
2022-10-23T10:19:32.611Z,99100.69
2022-10-23T10:22:56.611Z,99096.34
2022-10-23T10:26:01.745Z,99095.22
2022-10-23T10:29:30.869Z,99100.97
2022-10-23T10:32:52.041Z,99093.50
2022-10-23T10:35:57.807Z,99094.06
2022-10-23T10:39:03.264Z,99085.31
2022-10-23T10:42:14.067Z,99087.28
2022-10-23T10:45:27.731Z,99081.53
2022-10-23T10:48:44.010Z,99075.00
2022-10-23T10:52:27.558Z,99077.09
2022-10-23T10:55:40.331Z,99065.69
2022-10-23T10:58:49.078Z,99071.00
2022-10-23T11:02:06.163Z,99064.22
2022-10-23T11:05:23.031Z,99055.75
2022-10-23T11:08:50.052Z,99056.50
2022-10-23T11:12:03.573Z,99045.25
2022-10-23T11:15:14.111Z,99045.69
2022-10-23T11:18:24.414Z,99032.37
2022-10-23T11:21:34.363Z,99038.53
2022-10-23T11:24:45.401Z,99032.13
2022-10-23T11:28:12.703Z,99034.22
2022-10-23T11:31:44.639Z,99032.97
2022-10-23T11:35:06.175Z,99028.25
2022-10-23T11:38:19.286Z,99019.72
2022-10-23T11:41:26.781Z,99021.16
2022-10-23T11:44:44.055Z,99015.69
2022-10-23T11:47:57.633Z,99010.19
2022-10-23T11:51:02.849Z,99016.75
2022-10-23T11:54:17.159Z,99012.56
2022-10-23T11:57:20.295Z,99007.25
2022-10-23T12:00:23.869Z,98996.09
2022-10-23T12:03:40.976Z,99017.94
2022-10-23T12:06:56.907Z,99002.03
2022-10-23T12:10:06.141Z,99005.91
2022-10-23T12:13:31.069Z,99006.03
2022-10-23T12:16:35.493Z,99003.25
2022-10-23T12:19:48.023Z,98993.59
2022-10-23T12:23:09.627Z,98998.75
2022-10-23T12:26:36.371Z,98990.84
2022-10-23T12:29:57.202Z,98992.19
2022-10-23T12:33:15.110Z,98990.38
2022-10-23T12:36:42.380Z,98987.66
2022-10-23T12:39:52.331Z,98994.78
2022-10-23T12:42:56.444Z,98985.50
2022-10-23T12:46:04.819Z,98984.16
2022-10-23T12:49:20.041Z,98981.44
2022-10-23T12:52:24.979Z,98973.22
2022-10-23T12:55:45.272Z,98962.84
2022-10-23T12:58:53.598Z,98961.31
2022-10-23T13:01:56.492Z,98971.87
2022-10-23T13:05:01.591Z,98966.00
2022-10-23T13:08:05.528Z,98965.19
2022-10-23T13:11:16.729Z,98960.75
2022-10-23T13:14:31.110Z,98964.56
2022-10-23T13:17:58.628Z,98953.78
2022-10-23T13:24:19.162Z,98944.44
2022-10-23T13:27:27.035Z,98949.75
2022-10-23T13:30:37.991Z,98949.69
2022-10-23T13:33:50.974Z,98943.81
2022-10-23T13:36:58.567Z,98942.00
2022-10-23T13:40:03.971Z,98930.31
2022-10-23T13:43:14.596Z,98934.41
2022-10-23T13:46:22.868Z,98929.41
2022-10-23T13:49:25.583Z,98920.28
2022-10-23T13:52:28.476Z,98919.84
2022-10-23T13:55:31.694Z,98923.97
2022-10-23T13:58:34.786Z,98919.22
2022-10-23T14:01:38.158Z,98915.34
2022-10-23T14:04:41.143Z,98916.16
2022-10-23T14:07:44.030Z,98910.53
2022-10-23T14:10:47.370Z,98915.16
2022-10-23T14:13:50.784Z,98902.91
2022-10-23T14:16:54.791Z,98909.97
2022-10-23T14:19:57.364Z,98901.50
2022-10-23T14:23:00.224Z,98908.03
2022-10-23T14:26:04.040Z,98899.28
2022-10-23T14:29:12.386Z,98903.44
2022-10-23T14:32:21.171Z,98888.09
2022-10-23T14:35:25.540Z,98897.31
2022-10-23T14:38:28.331Z,98889.53
2022-10-23T14:41:31.085Z,98893.19
2022-10-23T14:44:33.751Z,98886.28
2022-10-23T14:47:36.593Z,98890.25
2022-10-23T14:50:44.470Z,98885.69
2022-10-23T14:53:48.369Z,98889.47
2022-10-23T14:56:50.907Z,98883.34
2022-10-23T14:59:56.815Z,98880.13
2022-10-23T15:02:59.930Z,98877.81
2022-10-23T15:06:02.775Z,98868.47
2022-10-23T15:09:05.783Z,98872.34
2022-10-23T15:12:08.673Z,98867.84
2022-10-23T15:15:11.467Z,98863.28
2022-10-23T15:18:14.810Z,98858.16
2022-10-23T15:21:17.709Z,98857.37
2022-10-23T15:24:23.232Z,98862.25
2022-10-23T15:27:25.755Z,98865.87
2022-10-23T15:30:28.735Z,98858.75
2022-10-23T15:33:31.338Z,98853.53
2022-10-23T15:36:34.620Z,98846.56
2022-10-23T15:39:37.154Z,98836.00
2022-10-23T15:42:41.080Z,98837.94
2022-10-23T15:45:45.242Z,98828.94
2022-10-23T15:48:48.251Z,98828.16
2022-10-23T15:51:51.858Z,98837.31
2022-10-23T15:54:54.883Z,98835.75
2022-10-23T15:58:02.017Z,98835.87
2022-10-23T16:01:06.668Z,98849.28
2022-10-23T16:04:12.503Z,98846.72
2022-10-23T16:07:15.226Z,98847.84
2022-10-23T16:10:18.821Z,98846.78
2022-10-23T16:13:21.338Z,98851.34
2022-10-23T16:16:24.685Z,98859.47
2022-10-23T16:19:27.304Z,98854.94
2022-10-23T16:22:30.380Z,98833.38
2022-10-23T16:25:36.445Z,98852.41
2022-10-23T16:28:39.409Z,98867.97
2022-10-23T16:31:42.264Z,98870.91
2022-10-23T16:34:45.748Z,98879.31
2022-10-23T16:37:48.495Z,98883.47
2022-10-23T16:40:53.272Z,98885.56
2022-10-23T16:44:00.692Z,98886.53
2022-10-23T16:47:04.791Z,98891.78
2022-10-23T16:50:08.053Z,98897.28
2022-10-23T16:53:10.868Z,98889.94
2022-10-23T16:56:18.059Z,98901.41
2022-10-23T16:59:21.114Z,98907.97
2022-10-23T17:02:24.004Z,98905.06
2022-10-23T17:05:27.149Z,98905.88
2022-10-23T17:08:30.090Z,98901.34
2022-10-23T17:11:35.017Z,98897.72
2022-10-23T17:14:38.740Z,98890.03
2022-10-23T17:17:43.060Z,98886.38
2022-10-23T17:20:45.963Z,98911.47
2022-10-23T17:23:49.513Z,98920.69
2022-10-23T17:26:54.698Z,98915.38
2022-10-23T17:29:58.137Z,98909.19
2022-10-23T17:33:01.971Z,98908.47
2022-10-23T17:36:05.644Z,98910.37
2022-10-23T17:39:10.423Z,98908.69
2022-10-23T17:42:13.337Z,98893.91
2022-10-23T17:45:15.884Z,98903.34
2022-10-23T17:48:18.846Z,98899.78
2022-10-23T17:51:24.031Z,98879.63
2022-10-23T17:54:28.589Z,98888.13
2022-10-23T17:57:31.973Z,98881.06
2022-10-23T18:00:36.956Z,98894.91
2022-10-23T18:03:40.642Z,98898.28
2022-10-23T18:06:48.572Z,98885.69
2022-10-23T18:09:51.591Z,98879.03
2022-10-23T18:12:54.777Z,98885.66
2022-10-23T18:16:05.978Z,98875.03
2022-10-23T18:19:09.087Z,98866.37
2022-10-23T18:22:12.298Z,98875.47
2022-10-23T18:25:18.688Z,98877.38
2022-10-23T18:28:23.386Z,98874.75
2022-10-23T18:31:29.643Z,98874.75
2022-10-23T18:34:32.950Z,98874.94
2022-10-23T18:37:41.224Z,98873.31
2022-10-23T18:40:44.775Z,98871.59
2022-10-23T18:43:47.597Z,98852.72
2022-10-23T18:46:51.311Z,98884.41
2022-10-23T18:49:54.047Z,98875.50
2022-10-23T18:52:57.351Z,98882.81
2022-10-23T18:56:00.855Z,98886.47
2022-10-23T18:59:06.383Z,98883.94
2022-10-23T19:02:11.160Z,98883.13
2022-10-23T19:05:15.246Z,98884.16
2022-10-23T19:08:18.133Z,98882.50
2022-10-23T19:11:23.392Z,98874.53
2022-10-23T19:14:28.764Z,98881.16
2022-10-23T19:17:32.857Z,98873.97
2022-10-23T19:20:42.894Z,98874.06
2022-10-23T19:23:47.753Z,98848.28
2022-10-23T19:26:50.498Z,98869.75
2022-10-23T19:29:54.707Z,98868.88
2022-10-23T19:32:57.696Z,98859.91
2022-10-23T19:36:05.212Z,98880.91
2022-10-23T19:39:08.617Z,98873.81
2022-10-23T19:42:12.443Z,98874.69
2022-10-23T19:45:15.786Z,98880.09
2022-10-23T19:48:19.160Z,98873.75
2022-10-23T19:51:24.593Z,98873.81
2022-10-23T19:54:28.528Z,98874.75
2022-10-23T19:57:37.441Z,98865.78
2022-10-23T20:00:41.098Z,98864.97
2022-10-23T20:03:45.668Z,98857.97
2022-10-23T20:06:49.288Z,98864.81
2022-10-23T20:09:52.737Z,98872.13
2022-10-23T20:13:02.365Z,98870.41
2022-10-23T20:16:23.707Z,98878.44
2022-10-23T20:19:27.651Z,98879.38
2022-10-23T20:22:30.959Z,98892.12
2022-10-23T20:25:33.760Z,98890.47
2022-10-23T20:28:37.376Z,98889.56
2022-10-23T20:31:40.594Z,98886.06
2022-10-23T20:34:43.768Z,98882.78
2022-10-23T20:37:46.722Z,98891.66
2022-10-23T20:40:49.908Z,98896.97
2022-10-23T20:43:53.191Z,98880.06
2022-10-23T20:46:56.373Z,98850.19
2022-10-23T20:49:59.069Z,98865.75
2022-10-23T20:53:02.126Z,98860.47
2022-10-23T20:56:15.492Z,98858.88
2022-10-23T20:59:18.981Z,98871.44
2022-10-23T21:02:22.083Z,98863.50
2022-10-23T21:05:25.063Z,98855.59
2022-10-23T21:08:28.010Z,98844.28
2022-10-23T21:11:32.547Z,98833.19
2022-10-23T21:14:37.787Z,98839.78
2022-10-23T21:17:41.165Z,98837.59
2022-10-23T21:20:45.125Z,98838.84
2022-10-23T21:23:49.914Z,98848.13
2022-10-23T21:26:52.742Z,98843.91
2022-10-23T21:29:55.616Z,98846.03
2022-10-23T21:32:58.429Z,98838.22
2022-10-23T21:36:13.618Z,98838.50
2022-10-23T21:39:16.808Z,98836.91
2022-10-23T21:42:19.759Z,98838.94
2022-10-23T21:45:22.398Z,98838.22
2022-10-23T21:48:28.467Z,98790.69
2022-10-23T21:51:35.397Z,98836.59
2022-10-23T21:54:40.664Z,98837.47
2022-10-23T21:57:43.112Z,98839.38
2022-10-23T22:00:46.068Z,98841.13
2022-10-23T22:03:49.305Z,98851.78
2022-10-23T22:06:51.854Z,98850.03
2022-10-23T22:09:54.631Z,98848.28
2022-10-23T22:12:57.144Z,98848.41
2022-10-23T22:16:04.167Z,98844.78
2022-10-23T22:19:07.030Z,98830.34
2022-10-23T22:22:10.053Z,98830.22
2022-10-23T22:25:12.536Z,98830.22
2022-10-23T22:28:15.493Z,98835.81
2022-10-23T22:31:20.711Z,98828.94
2022-10-23T22:34:52.680Z,98841.56
2022-10-23T22:37:55.167Z,98837.16
2022-10-23T22:41:00.850Z,98833.75
2022-10-23T22:44:03.444Z,98832.31
2022-10-23T22:47:06.928Z,98834.84
2022-10-23T22:50:09.627Z,98844.66
2022-10-23T22:53:12.487Z,98836.47
2022-10-23T22:56:17.971Z,98841.84
2022-10-23T22:59:20.833Z,98830.13
2022-10-23T23:02:23.991Z,98823.31
2022-10-23T23:05:26.962Z,98840.91
2022-10-23T23:08:29.612Z,98842.56
2022-10-23T23:11:40.768Z,98846.28
2022-10-23T23:14:54.567Z,98838.22
2022-10-23T23:17:57.368Z,98831.94
2022-10-23T23:21:04.486Z,98810.03
2022-10-23T23:24:07.433Z,98833.91
2022-10-23T23:27:10.019Z,98830.47
2022-10-23T23:30:12.859Z,98828.66
2022-10-23T23:33:19.019Z,98822.56
2022-10-23T23:36:24.824Z,98817.41
2022-10-23T23:39:28.584Z,98812.34
2022-10-23T23:42:31.663Z,98830.44
2022-10-23T23:45:34.291Z,98825.91
2022-10-23T23:48:37.594Z,98812.53
2022-10-23T23:51:40.032Z,98809.03
2022-10-23T23:54:42.750Z,98818.22
2022-10-23T23:57:45.646Z,98830.78
